createdAt,value
2018-07-28T00:01:37.935Z,10.95
2018-07-28T00:04:06.818Z,11.57
2018-07-28T00:06:35.619Z,10.48
2018-07-28T00:09:07.120Z,11.63
2018-07-28T00:11:36.188Z,10.30
2018-07-28T00:14:04.842Z,11.00
2018-07-28T00:16:33.847Z,11.40
2018-07-28T00:19:02.671Z,10.95
2018-07-28T00:21:31.566Z,11.48
2018-07-28T00:24:00.450Z,11.60
2018-07-28T00:26:29.311Z,11.53
2018-07-28T00:28:58.136Z,11.73
2018-07-28T00:31:27.037Z,11.77
2018-07-28T00:33:55.933Z,11.07
2018-07-28T00:36:24.366Z,10.97
2018-07-28T00:38:53.236Z,11.15
2018-07-28T00:41:22.081Z,11.57
2018-07-28T00:43:50.895Z,11.30
2018-07-28T00:46:19.755Z,10.73
2018-07-28T00:48:48.592Z,11.37
2018-07-28T00:51:17.403Z,11.27
2018-07-28T00:53:46.316Z,10.63
2018-07-28T00:56:15.139Z,10.80
2018-07-28T00:58:43.959Z,11.20
2018-07-28T01:01:12.824Z,10.93
2018-07-28T01:03:41.716Z,10.82
2018-07-28T01:06:10.544Z,11.20
2018-07-28T01:08:39.418Z,11.73
2018-07-28T01:11:08.256Z,11.68
2018-07-28T01:13:37.079Z,11.30
2018-07-28T01:16:05.982Z,10.93
2018-07-28T01:18:34.880Z,10.43
2018-07-28T01:21:03.706Z,10.70
2018-07-28T01:23:32.669Z,10.63
2018-07-28T01:26:01.614Z,10.60
2018-07-28T01:28:30.430Z,11.30
2018-07-28T01:30:59.299Z,11.77
2018-07-28T01:33:28.124Z,11.30
2018-07-28T01:35:56.953Z,11.27
2018-07-28T01:38:25.916Z,11.20
2018-07-28T01:40:54.727Z,11.43
2018-07-28T01:43:23.570Z,11.07
2018-07-28T01:45:52.432Z,11.37
2018-07-28T01:48:21.251Z,11.57
2018-07-28T01:50:50.069Z,11.53
2018-07-28T01:53:18.946Z,11.60
2018-07-28T01:55:47.778Z,11.27
2018-07-28T01:58:17.007Z,11.80
2018-07-28T02:00:45.911Z,11.37
2018-07-28T02:03:14.707Z,12.20
2018-07-28T02:05:43.539Z,11.63
2018-07-28T02:08:12.406Z,12.53
2018-07-28T02:10:41.238Z,12.90
2018-07-28T02:13:10.089Z,12.23
2018-07-28T02:15:39.026Z,12.50
2018-07-28T02:18:07.832Z,10.90
2018-07-28T02:20:36.737Z,11.73
2018-07-28T02:23:05.620Z,11.73
2018-07-28T02:25:34.433Z,12.30
2018-07-28T02:28:03.380Z,12.87
2018-07-28T02:30:32.292Z,12.55
2018-07-28T02:33:00.726Z,10.30
2018-07-28T02:35:29.560Z,11.97
2018-07-28T02:37:58.417Z,12.33
2018-07-28T02:40:27.248Z,12.00
2018-07-28T02:42:56.181Z,12.23
2018-07-28T02:45:25.049Z,11.90
2018-07-28T02:47:53.879Z,11.07
2018-07-28T02:50:22.695Z,12.30
2018-07-28T02:52:51.539Z,10.30
2018-07-28T02:55:20.348Z,11.83
2018-07-28T02:57:49.173Z,12.27
2018-07-28T03:00:18.128Z,11.57
2018-07-28T03:02:46.948Z,12.83
2018-07-28T03:05:15.789Z,12.63
2018-07-28T03:07:44.693Z,12.00
2018-07-28T03:10:13.503Z,11.97
2018-07-28T03:12:42.416Z,12.13
2018-07-28T03:15:27.172Z,12.43
2018-07-28T03:17:56.371Z,12.10
2018-07-28T03:20:25.208Z,12.57
2018-07-28T03:22:54.075Z,13.20
2018-07-28T03:25:22.952Z,12.33
2018-07-28T03:27:51.364Z,10.83
2018-07-28T03:30:20.393Z,12.33
2018-07-28T03:32:49.251Z,12.33
2018-07-28T03:35:18.067Z,12.57
2018-07-28T03:37:47.349Z,12.77
2018-07-28T03:40:16.175Z,11.83
2018-07-28T03:42:45.022Z,11.53
2018-07-28T03:45:13.876Z,11.33
2018-07-28T03:47:42.805Z,12.33
2018-07-28T03:50:11.879Z,12.40
2018-07-28T03:52:40.738Z,13.23
2018-07-28T03:55:10.488Z,12.37
2018-07-28T03:57:39.520Z,13.47
2018-07-28T04:00:11.388Z,9.87
2018-07-28T04:02:40.304Z,12.30
2018-07-28T04:05:10.785Z,12.73
2018-07-28T04:07:40.086Z,12.33
2018-07-28T04:10:09.795Z,10.63
2018-07-28T04:12:39.264Z,10.63
2018-07-28T04:15:10.655Z,11.33
2018-07-28T04:17:55.915Z,12.37
2018-07-28T04:20:26.051Z,12.13
2018-07-28T04:22:55.270Z,10.37
2018-07-28T04:25:24.484Z,10.60
2018-07-28T04:27:52.911Z,10.73
2018-07-28T04:30:21.959Z,10.80
2018-07-28T04:32:50.845Z,12.78
2018-07-28T04:35:19.291Z,11.97
2018-07-28T04:37:51.083Z,11.33
2018-07-28T04:40:19.928Z,12.30
2018-07-28T04:42:48.813Z,10.30
2018-07-28T04:45:17.642Z,11.63
2018-07-28T04:47:46.438Z,14.07
2018-07-28T04:50:15.355Z,12.05
2018-07-28T04:52:44.529Z,10.75
2018-07-28T04:55:13.347Z,10.63
2018-07-28T04:57:42.232Z,11.00
2018-07-28T05:00:11.048Z,10.95
2018-07-28T05:02:39.884Z,10.60
2018-07-28T05:05:08.795Z,9.90
2018-07-28T05:07:37.737Z,9.98
2018-07-28T05:10:06.451Z,10.48
2018-07-28T05:12:35.359Z,11.40
2018-07-28T05:15:04.957Z,11.20
2018-07-28T05:17:33.770Z,10.88
2018-07-28T05:20:02.635Z,11.97
2018-07-28T05:22:31.454Z,11.18
2018-07-28T05:25:00.300Z,11.28
2018-07-28T05:27:29.138Z,11.25
2018-07-28T05:29:57.974Z,11.97
2018-07-28T05:32:26.820Z,13.05
2018-07-28T05:34:55.375Z,12.03
2018-07-28T05:37:24.224Z,12.10
2018-07-28T05:39:53.042Z,13.35
2018-07-28T05:42:22.140Z,12.53
2018-07-28T05:44:51.324Z,12.55
2018-07-28T05:47:20.200Z,12.78
2018-07-28T05:49:49.051Z,13.20
2018-07-28T05:52:17.882Z,13.35
2018-07-28T05:54:46.815Z,12.68
2018-07-28T05:57:15.662Z,13.40
2018-07-28T05:59:44.572Z,13.28
2018-07-28T06:02:13.103Z,12.45
2018-07-28T06:04:41.939Z,13.25
2018-07-28T06:07:10.779Z,12.40
2018-07-28T06:09:39.606Z,12.55
2018-07-28T06:12:08.516Z,12.68
2018-07-28T06:14:37.910Z,12.43
2018-07-28T06:17:06.793Z,11.03
2018-07-28T06:19:35.646Z,11.03
2018-07-28T06:22:04.627Z,11.53
2018-07-28T06:24:33.426Z,11.25
2018-07-28T06:27:02.256Z,11.12
2018-07-28T06:29:31.137Z,10.63
2018-07-28T06:32:00.179Z,13.68
2018-07-28T06:34:29.015Z,12.03
2018-07-28T06:36:57.980Z,12.95
2018-07-28T06:39:27.051Z,13.85
2018-07-28T06:41:55.890Z,13.58
2018-07-28T06:44:24.716Z,14.07
2018-07-28T06:46:53.591Z,12.45
2018-07-28T06:49:22.531Z,12.13
2018-07-28T06:51:51.394Z,12.43
2018-07-28T06:54:20.244Z,12.50
2018-07-28T06:56:49.103Z,12.18
2018-07-28T06:59:17.938Z,12.23
2018-07-28T07:01:46.751Z,11.85
2018-07-28T07:04:15.644Z,12.18
2018-07-28T07:06:44.585Z,12.43
2018-07-28T07:09:13.428Z,12.33
2018-07-28T07:11:42.292Z,12.10
2018-07-28T07:14:11.269Z,11.65
2018-07-28T07:16:40.173Z,11.33
2018-07-28T07:19:09.100Z,12.10
2018-07-28T07:21:37.988Z,11.75
2018-07-28T07:24:06.970Z,11.53
2018-07-28T07:26:35.920Z,11.85
2018-07-28T07:29:04.787Z,11.73
2018-07-28T07:31:33.615Z,11.18
2018-07-28T07:34:02.499Z,11.45
2018-07-28T07:36:31.374Z,11.25
2018-07-28T07:39:00.272Z,11.57
2018-07-28T07:41:29.203Z,11.35
2018-07-28T07:43:58.128Z,10.88
2018-07-28T07:46:26.964Z,11.65
2018-07-28T07:48:55.850Z,10.93
2018-07-28T07:51:24.957Z,11.03
2018-07-28T07:53:53.848Z,11.55
2018-07-28T07:56:22.723Z,11.65
2018-07-28T07:58:51.575Z,11.65
2018-07-28T08:01:20.415Z,11.05
2018-07-28T08:03:49.384Z,10.70
2018-07-28T08:06:18.294Z,12.20
2018-07-28T08:08:47.215Z,10.98
2018-07-28T08:11:16.031Z,10.75
2018-07-28T08:13:44.920Z,11.08
2018-07-28T08:16:13.791Z,10.80
2018-07-28T08:18:42.641Z,11.40
2018-07-28T08:21:11.489Z,11.05
2018-07-28T08:23:40.813Z,10.90
2018-07-28T08:26:09.831Z,10.70
2018-07-28T08:28:38.988Z,10.93
2018-07-28T08:31:07.967Z,10.23
2018-07-28T08:33:36.809Z,10.93
2018-07-28T08:36:05.861Z,10.93
2018-07-28T08:38:34.784Z,10.60
2018-07-28T08:41:03.657Z,10.03
2018-07-28T08:43:32.480Z,10.50
2018-07-28T08:46:01.348Z,9.98
2018-07-28T08:48:30.211Z,10.48
2018-07-28T08:50:59.026Z,10.35
2018-07-28T08:53:27.880Z,9.73
2018-07-28T08:55:56.366Z,9.63
2018-07-28T08:58:25.265Z,10.25
2018-07-28T09:00:54.491Z,10.45
2018-07-28T09:03:23.391Z,10.00
2018-07-28T09:05:52.326Z,9.45
2018-07-28T09:08:21.274Z,10.18
2018-07-28T09:10:50.324Z,10.32
2018-07-28T09:13:19.163Z,9.78
2018-07-28T09:15:49.328Z,9.25
2018-07-28T09:18:18.225Z,10.18
2018-07-28T09:20:47.128Z,10.95
2018-07-28T09:23:17.557Z,10.60
2018-07-28T09:25:46.435Z,10.85
2018-07-28T09:28:15.485Z,10.68
2018-07-28T09:30:44.024Z,10.43
2018-07-28T09:33:12.923Z,9.03
2018-07-28T09:35:41.785Z,9.18
2018-07-28T09:38:10.632Z,8.90
2018-07-28T09:40:39.488Z,7.75
2018-07-28T09:43:08.420Z,8.20
2018-07-28T09:45:37.352Z,8.80
2018-07-28T09:48:06.400Z,7.70
2018-07-28T09:50:35.275Z,7.67
2018-07-28T09:53:04.169Z,7.35
2018-07-28T09:55:33.204Z,7.65
2018-07-28T09:58:02.023Z,7.95
2018-07-28T10:00:36.159Z,7.47
2018-07-28T10:03:04.612Z,7.62
2018-07-28T10:05:33.496Z,8.25
2018-07-28T10:08:02.315Z,7.62
2018-07-28T10:10:31.151Z,7.85
2018-07-28T10:12:59.951Z,7.95
2018-07-28T10:15:28.937Z,7.58
2018-07-28T10:17:57.768Z,7.67
2018-07-28T10:20:26.580Z,7.60
2018-07-28T10:22:55.701Z,7.72
2018-07-28T10:25:24.530Z,8.05
2018-07-28T10:27:53.356Z,7.00
2018-07-28T10:30:22.760Z,7.78
2018-07-28T10:32:51.627Z,7.62
2018-07-28T10:35:20.461Z,7.80
2018-07-28T10:37:49.372Z,7.12
2018-07-28T10:40:18.216Z,7.35
2018-07-28T10:42:47.019Z,7.50
2018-07-28T10:45:16.227Z,11.70
2018-07-28T10:47:45.136Z,12.23
2018-07-28T10:50:13.955Z,14.33
2018-07-28T10:52:42.784Z,13.00
2018-07-28T10:55:11.653Z,12.40
2018-07-28T10:57:40.489Z,10.25
2018-07-28T11:00:09.542Z,8.35
2018-07-28T11:02:38.375Z,6.60
2018-07-28T11:05:07.314Z,7.33
2018-07-28T11:07:36.134Z,7.42
2018-07-28T11:10:05.720Z,7.22
2018-07-28T11:12:34.768Z,7.30
2018-07-28T11:15:03.607Z,6.53
2018-07-28T11:17:32.422Z,6.83
2018-07-28T11:20:01.469Z,6.80
2018-07-28T11:22:32.354Z,6.40
2018-07-28T11:25:03.586Z,6.78
2018-07-28T11:27:32.535Z,6.78
2018-07-28T11:30:01.348Z,6.60
2018-07-28T11:32:41.096Z,6.53
2018-07-28T11:35:21.209Z,6.65
2018-07-28T11:38:35.472Z,7.12
2018-07-28T11:41:15.267Z,6.10
2018-07-28T11:43:55.456Z,6.53
2018-07-28T11:46:24.286Z,6.55
2018-07-28T11:48:53.092Z,6.67
2018-07-28T11:51:22.032Z,6.35
2018-07-28T11:53:50.911Z,7.05
2018-07-28T11:56:19.746Z,6.80
2018-07-28T11:58:48.639Z,7.15
2018-07-28T12:01:17.451Z,6.50
2018-07-28T12:03:46.287Z,6.80
2018-07-28T12:06:15.243Z,7.10
2018-07-28T12:08:44.063Z,6.97
2018-07-28T12:11:12.875Z,7.00
2018-07-28T12:13:41.749Z,7.47
2018-07-28T12:16:10.563Z,6.67
2018-07-28T12:18:39.422Z,7.47
2018-07-28T12:21:08.347Z,7.33
2018-07-28T12:23:37.190Z,7.42
2018-07-28T12:26:06.119Z,7.30
2018-07-28T12:28:35.022Z,7.10
2018-07-28T12:31:03.885Z,7.45
2018-07-28T12:33:33.731Z,7.10
2018-07-28T12:36:02.571Z,7.70
2018-07-28T12:38:31.482Z,7.30
2018-07-28T12:41:00.699Z,7.97
2018-07-28T12:43:29.472Z,7.65
2018-07-28T12:45:58.383Z,7.92
2018-07-28T12:48:27.223Z,8.63
2018-07-28T12:50:56.055Z,8.20
2018-07-28T12:53:24.880Z,7.97
2018-07-28T12:55:53.768Z,7.90
2018-07-28T12:58:22.608Z,7.83
2018-07-28T13:00:51.532Z,7.60
2018-07-28T13:03:20.514Z,7.62
2018-07-28T13:05:49.331Z,7.95
2018-07-28T13:08:18.187Z,8.38
2018-07-28T13:10:47.085Z,7.65
2018-07-28T13:13:16.052Z,7.53
2018-07-28T13:15:44.963Z,8.10
2018-07-28T13:18:13.776Z,7.40
2018-07-28T13:20:42.641Z,7.53
2018-07-28T13:23:11.508Z,8.10
2018-07-28T13:25:40.321Z,8.13
2018-07-28T13:28:09.127Z,8.15
2018-07-28T13:30:38.035Z,7.87
2018-07-28T13:33:06.917Z,7.58
2018-07-28T13:35:35.800Z,7.00
2018-07-28T13:38:04.704Z,7.37
2018-07-28T13:40:33.558Z,6.90
2018-07-28T13:43:02.401Z,7.53
2018-07-28T13:45:31.311Z,7.20
2018-07-28T13:48:00.128Z,6.55
2018-07-28T13:50:28.567Z,7.25
2018-07-28T13:52:57.423Z,6.75
2018-07-28T13:55:26.273Z,7.05
2018-07-28T13:57:55.093Z,7.33
2018-07-28T14:00:24.028Z,6.90
2018-07-28T14:02:52.931Z,6.78
2018-07-28T14:05:21.775Z,6.20
2018-07-28T14:07:50.658Z,7.05
2018-07-28T14:10:19.575Z,6.37
2018-07-28T14:12:48.496Z,6.97
2018-07-28T14:15:17.470Z,6.67
2018-07-28T14:17:46.525Z,6.22
2018-07-28T14:20:15.384Z,7.05
2018-07-28T14:22:44.220Z,6.58
2018-07-28T14:25:13.175Z,7.00
2018-07-28T14:27:42.156Z,6.22
2018-07-28T14:30:11.069Z,7.35
2018-07-28T14:32:40.067Z,6.42
2018-07-28T14:35:08.660Z,7.03
2018-07-28T14:37:37.638Z,6.92
2018-07-28T14:40:06.076Z,7.47
2018-07-28T14:42:35.081Z,7.40
2018-07-28T14:45:03.896Z,6.58
2018-07-28T14:47:32.737Z,6.80
2018-07-28T14:50:01.655Z,6.47
2018-07-28T14:52:30.472Z,7.00
2018-07-28T14:55:00.191Z,6.78
2018-07-28T14:57:29.266Z,6.30
2018-07-28T14:59:58.158Z,6.37
2018-07-28T15:02:26.981Z,7.00
2018-07-28T15:04:55.983Z,6.78
2018-07-28T15:07:24.962Z,6.53
2018-07-28T15:09:56.117Z,6.83
2018-07-28T15:12:26.347Z,7.22
2018-07-28T15:14:55.307Z,7.08
2018-07-28T15:17:24.157Z,6.97
2018-07-28T15:19:52.989Z,7.10
2018-07-28T15:22:21.885Z,7.25
2018-07-28T15:24:50.707Z,6.87
2018-07-28T15:27:19.536Z,6.58
2018-07-28T15:29:48.474Z,7.42
2018-07-28T15:32:17.312Z,6.95
2018-07-28T15:34:46.227Z,6.72
2018-07-28T15:37:14.749Z,7.03
2018-07-28T15:39:43.748Z,7.33
2018-07-28T15:42:13.260Z,6.60
2018-07-28T15:44:42.080Z,7.60
2018-07-28T15:47:10.954Z,6.83
2018-07-28T15:49:39.959Z,6.95
2018-07-28T15:52:08.784Z,6.50
2018-07-28T15:54:37.675Z,6.72
2018-07-28T15:57:06.627Z,6.53
2018-07-28T15:59:36.516Z,6.92
2018-07-28T16:02:05.344Z,7.22
2018-07-28T16:04:34.780Z,7.15
2018-07-28T16:07:03.667Z,7.75
2018-07-28T16:09:32.575Z,8.23
2018-07-28T16:12:01.446Z,7.22
2018-07-28T16:14:33.317Z,7.10
2018-07-28T16:17:02.190Z,7.22
2018-07-28T16:19:31.215Z,6.80
2018-07-28T16:22:00.032Z,8.40
2018-07-28T16:24:28.930Z,13.15
2018-07-28T16:26:58.171Z,11.80
2018-07-28T16:29:26.988Z,16.57
2018-07-28T16:31:58.102Z,23.45
2018-07-28T16:34:26.530Z,15.23
2018-07-28T16:36:55.512Z,19.32
2018-07-28T16:39:24.380Z,21.60
2018-07-28T16:41:53.410Z,20.82
2018-07-28T16:44:22.320Z,20.48
2018-07-28T16:46:51.522Z,17.57
2018-07-28T16:49:20.728Z,14.98
2018-07-28T16:51:50.359Z,15.75
2018-07-28T16:54:19.212Z,15.05
2018-07-28T16:56:48.056Z,15.20
2018-07-28T16:59:16.939Z,14.47
2018-07-28T17:01:45.813Z,18.75
2018-07-28T17:04:14.643Z,17.25
2018-07-28T17:06:43.738Z,15.63
2018-07-28T17:09:13.571Z,14.05
2018-07-28T17:11:43.604Z,12.30
2018-07-28T17:14:12.536Z,14.10
2018-07-28T17:16:41.275Z,13.50
2018-07-28T17:19:10.121Z,12.13
2018-07-28T17:21:39.021Z,12.20
2018-07-28T17:24:07.830Z,11.25
2018-07-28T17:26:36.670Z,11.90
2018-07-28T17:29:05.503Z,12.78
2018-07-28T17:31:34.362Z,11.70
2018-07-28T17:34:03.288Z,12.18
2018-07-28T17:36:32.116Z,10.85
2018-07-28T17:39:00.947Z,10.90
2018-07-28T17:41:30.218Z,10.85
2018-07-28T17:43:59.130Z,10.90
2018-07-28T17:46:27.967Z,10.32
2018-07-28T17:48:56.863Z,9.65
2018-07-28T17:51:25.988Z,9.98
2018-07-28T17:53:54.805Z,10.35
2018-07-28T17:56:23.655Z,9.00
2018-07-28T17:58:52.552Z,9.48
2018-07-28T18:01:21.386Z,9.98
2018-07-28T18:03:50.248Z,10.00
2018-07-28T18:06:19.075Z,9.50
2018-07-28T18:08:47.930Z,10.43
2018-07-28T18:11:16.915Z,10.45
2018-07-28T18:13:45.764Z,10.85
2018-07-28T18:16:14.688Z,11.35
2018-07-28T18:18:43.534Z,10.05
2018-07-28T18:21:12.344Z,9.78
2018-07-28T18:23:41.243Z,11.08
2018-07-28T18:26:10.067Z,9.03
2018-07-28T18:28:38.895Z,9.93
2018-07-28T18:31:07.783Z,9.90
2018-07-28T18:33:36.614Z,9.38
2018-07-28T18:36:05.499Z,9.30
2018-07-28T18:38:34.533Z,10.20
2018-07-28T18:41:03.460Z,9.68
2018-07-28T18:43:32.470Z,9.75
2018-07-28T18:46:01.417Z,9.33
2018-07-28T18:48:30.318Z,9.73
2018-07-28T18:50:59.195Z,9.35
2018-07-28T18:53:28.061Z,9.10
2018-07-28T18:55:56.952Z,9.70
2018-07-28T18:58:25.866Z,10.38
2018-07-28T19:00:54.726Z,10.30
2018-07-28T19:03:23.177Z,9.65
2018-07-28T19:05:52.156Z,9.40
2018-07-28T19:08:21.317Z,8.98
2018-07-28T19:10:51.831Z,8.90
2018-07-28T19:13:26.430Z,9.28
2018-07-28T19:15:55.646Z,9.23
2018-07-28T19:18:30.141Z,8.93
2018-07-28T19:20:59.017Z,9.15
2018-07-28T19:23:33.256Z,8.68
2018-07-28T19:26:02.127Z,8.43
2018-07-28T19:28:36.335Z,7.97
2018-07-28T19:31:05.225Z,9.10
2018-07-28T19:33:34.092Z,9.03
2018-07-28T19:36:08.236Z,9.58
2018-07-28T19:38:37.099Z,9.13
2018-07-28T19:41:05.934Z,9.20
2018-07-28T19:43:34.811Z,8.38
2018-07-28T19:46:03.709Z,9.10
2018-07-28T19:48:32.172Z,9.38
2018-07-28T19:51:01.086Z,9.33
2018-07-28T19:53:29.926Z,9.63
2018-07-28T19:55:58.761Z,9.38
2018-07-28T19:58:27.636Z,8.85
2018-07-28T20:00:56.448Z,8.73
2018-07-28T20:03:25.866Z,8.53
2018-07-28T20:05:55.312Z,8.83
2018-07-28T20:08:26.377Z,9.18
2018-07-28T20:10:55.343Z,9.68
2018-07-28T20:13:24.231Z,9.45
2018-07-28T20:15:53.327Z,9.10
2018-07-28T20:18:22.158Z,9.15
2018-07-28T20:20:51.240Z,9.53
2018-07-28T20:23:20.450Z,9.20
2018-07-28T20:25:49.271Z,9.15
2018-07-28T20:28:18.252Z,9.08
2018-07-28T20:30:47.160Z,9.50
2018-07-28T20:33:15.992Z,9.20
2018-07-28T20:35:44.803Z,9.35
2018-07-28T20:38:13.800Z,9.13
2018-07-28T20:40:42.611Z,10.15
2018-07-28T20:43:11.763Z,9.18
2018-07-28T20:45:40.663Z,9.20
2018-07-28T20:48:09.541Z,9.70
2018-07-28T20:50:39.017Z,9.63
2018-07-28T20:53:07.904Z,9.33
2018-07-28T20:55:36.734Z,9.60
2018-07-28T20:58:05.696Z,9.88
2018-07-28T21:00:34.546Z,9.45
2018-07-28T21:03:03.360Z,9.83
2018-07-28T21:05:32.187Z,9.20
2018-07-28T21:08:01.166Z,9.73
2018-07-28T21:10:30.036Z,9.48
2018-07-28T21:12:58.917Z,9.48
2018-07-28T21:15:27.784Z,9.08
2018-07-28T21:17:56.686Z,9.18
2018-07-28T21:20:25.496Z,9.15
2018-07-28T21:22:54.404Z,9.73
2018-07-28T21:25:23.309Z,9.18
2018-07-28T21:27:52.163Z,9.33
2018-07-28T21:30:21.011Z,9.80
2018-07-28T21:32:49.849Z,8.90
2018-07-28T21:35:19.594Z,9.63
2018-07-28T21:37:48.540Z,9.70
2018-07-28T21:40:17.427Z,10.20
2018-07-28T21:42:46.230Z,10.10
2018-07-28T21:45:15.089Z,10.65
2018-07-28T21:47:43.910Z,10.15
2018-07-28T21:50:12.712Z,9.95
2018-07-28T21:52:41.656Z,9.93
2018-07-28T21:55:10.489Z,9.85
2018-07-28T21:57:39.338Z,10.72
2018-07-28T22:00:12.224Z,10.28
2018-07-28T22:02:41.076Z,10.40
2018-07-28T22:05:10.034Z,9.68
2018-07-28T22:07:38.899Z,10.08
2018-07-28T22:10:07.719Z,10.50
2018-07-28T22:12:36.580Z,10.48
2018-07-28T22:15:05.889Z,10.23
2018-07-28T22:17:34.721Z,10.05
2018-07-28T22:20:03.605Z,9.70
2018-07-28T22:22:32.495Z,10.05
2018-07-28T22:25:01.304Z,10.08
2018-07-28T22:27:31.125Z,10.15
2018-07-28T22:30:00.583Z,9.73
2018-07-28T22:32:29.420Z,9.65
2018-07-28T22:34:58.241Z,9.35
2018-07-28T22:37:27.095Z,10.03
2018-07-28T22:39:55.904Z,9.58
2018-07-28T22:42:55.479Z,9.60
2018-07-28T22:45:24.368Z,9.95
2018-07-28T22:47:53.211Z,10.03
2018-07-28T22:50:22.530Z,10.25
2018-07-28T22:52:51.353Z,10.43
2018-07-28T22:55:20.828Z,10.18
2018-07-28T22:57:49.736Z,10.20
2018-07-28T23:00:19.003Z,11.22
2018-07-28T23:02:47.811Z,10.88
2018-07-28T23:05:18.115Z,10.95
2018-07-28T23:07:47.066Z,10.95
2018-07-28T23:10:15.896Z,10.70
2018-07-28T23:12:44.711Z,10.20
2018-07-28T23:15:13.586Z,9.60
2018-07-28T23:17:42.910Z,10.48
2018-07-28T23:20:11.753Z,10.50
2018-07-28T23:22:41.072Z,10.63
2018-07-28T23:25:09.887Z,10.75
2018-07-28T23:27:38.716Z,11.08
2018-07-28T23:30:09.540Z,9.98
2018-07-28T23:32:38.730Z,10.70
2018-07-28T23:35:07.932Z,9.55
2018-07-28T23:37:37.101Z,11.35
2018-07-28T23:40:06.355Z,11.12
2018-07-28T23:42:35.261Z,10.72
2018-07-28T23:45:04.178Z,11.25
2018-07-28T23:47:33.015Z,11.20
2018-07-28T23:50:01.829Z,11.90
2018-07-28T23:52:30.711Z,10.60
2018-07-28T23:54:59.527Z,11.53
2018-07-28T23:57:28.414Z,10.90
2018-07-28T23:59:57.286Z,10.88
